createdAt,value
2023-01-26T00:01:19.215Z,11.85
2023-01-26T00:03:46.275Z,12.57
2023-01-26T00:06:15.433Z,13.43
2023-01-26T00:08:47.705Z,11.13
2023-01-26T00:11:17.199Z,12.52
2023-01-26T00:13:43.905Z,12.32
2023-01-26T00:16:13.281Z,12.60
2023-01-26T00:18:41.320Z,13.75
2023-01-26T00:21:11.227Z,12.30
2023-01-26T00:23:37.967Z,13.90
2023-01-26T00:26:08.853Z,14.70
2023-01-26T00:28:35.553Z,13.90
2023-01-26T00:31:04.221Z,14.50
2023-01-26T00:33:31.030Z,11.68
2023-01-26T00:35:57.679Z,13.40
2023-01-26T00:38:24.405Z,12.73
2023-01-26T00:40:51.210Z,13.05
2023-01-26T00:43:18.102Z,12.90
2023-01-26T00:45:45.096Z,13.93
2023-01-26T00:48:11.718Z,13.32
2023-01-26T00:50:38.362Z,12.57
2023-01-26T00:53:05.242Z,13.60
2023-01-26T00:55:34.590Z,14.00
2023-01-26T00:58:07.032Z,13.07
2023-01-26T01:00:35.798Z,11.80
2023-01-26T01:03:02.638Z,12.52
2023-01-26T01:05:31.395Z,13.20
2023-01-26T01:07:58.502Z,12.80
2023-01-26T01:10:27.411Z,13.60
2023-01-26T01:12:54.531Z,12.85
2023-01-26T01:15:21.185Z,13.00
2023-01-26T01:17:48.223Z,14.27
2023-01-26T01:20:15.533Z,13.30
2023-01-26T01:22:42.237Z,13.45
2023-01-26T01:25:09.220Z,15.60
2023-01-26T01:27:35.852Z,13.80
2023-01-26T01:30:07.514Z,14.05
2023-01-26T01:32:39.893Z,13.02
2023-01-26T01:35:07.249Z,13.00
2023-01-26T01:37:34.313Z,14.35
2023-01-26T01:40:00.947Z,14.38
2023-01-26T01:42:27.975Z,13.05
2023-01-26T01:45:37.326Z,13.68
2023-01-26T01:48:07.603Z,12.98
2023-01-26T01:50:39.285Z,11.90
2023-01-26T01:53:08.184Z,13.43
2023-01-26T01:55:35.347Z,12.20
2023-01-26T01:58:03.413Z,12.35
2023-01-26T02:00:30.081Z,12.50
2023-01-26T02:03:19.192Z,12.10
2023-01-26T02:06:06.733Z,11.45
2023-01-26T02:08:54.928Z,11.90
2023-01-26T02:11:44.965Z,11.48
2023-01-26T02:14:14.310Z,10.35
2023-01-26T02:16:40.960Z,11.40
2023-01-26T02:19:19.887Z,11.70
2023-01-26T02:21:49.612Z,11.60
2023-01-26T02:24:28.476Z,11.35
2023-01-26T02:26:55.612Z,10.30
2023-01-26T02:29:22.651Z,9.93
2023-01-26T02:31:49.390Z,10.82
2023-01-26T02:34:16.102Z,9.57
2023-01-26T02:36:42.739Z,9.90
2023-01-26T02:39:12.346Z,10.68
2023-01-26T02:41:58.335Z,11.05
2023-01-26T02:44:25.971Z,10.75
2023-01-26T02:46:53.315Z,9.75
2023-01-26T02:49:38.312Z,10.82
2023-01-26T02:52:05.934Z,9.32
2023-01-26T02:54:51.342Z,9.60
2023-01-26T02:57:18.050Z,9.60
2023-01-26T02:59:44.749Z,9.95
2023-01-26T03:02:11.980Z,9.85
2023-01-26T03:04:38.614Z,9.70
2023-01-26T03:07:05.277Z,10.10
2023-01-26T03:09:31.943Z,9.52
2023-01-26T03:11:58.586Z,9.23
2023-01-26T03:14:25.189Z,8.80
2023-01-26T03:16:51.823Z,9.18
2023-01-26T03:19:36.823Z,9.57
2023-01-26T03:22:22.293Z,8.27
2023-01-26T03:25:07.757Z,7.80
2023-01-26T03:27:44.140Z,8.25
2023-01-26T03:30:12.359Z,8.48
2023-01-26T03:32:39.550Z,8.95
2023-01-26T03:35:06.984Z,8.07
2023-01-26T03:37:36.874Z,7.38
2023-01-26T03:40:23.080Z,8.43
2023-01-26T03:43:08.446Z,8.75
2023-01-26T03:45:53.836Z,7.70
2023-01-26T03:48:39.270Z,8.10
2023-01-26T03:51:24.637Z,8.80
2023-01-26T03:54:09.902Z,8.13
2023-01-26T03:56:36.524Z,8.15
2023-01-26T03:59:08.903Z,8.00
2023-01-26T04:01:40.730Z,7.30
2023-01-26T04:04:26.693Z,7.32
2023-01-26T04:07:12.121Z,7.45
2023-01-26T04:09:41.731Z,7.38
2023-01-26T04:12:10.291Z,7.45
2023-01-26T04:14:55.878Z,7.47
2023-01-26T04:17:41.257Z,6.85
2023-01-26T04:20:27.290Z,7.47
2023-01-26T04:22:53.919Z,6.80
2023-01-26T04:25:21.944Z,7.18
2023-01-26T04:27:48.621Z,6.82
2023-01-26T04:30:16.619Z,6.97
2023-01-26T04:32:43.527Z,6.60
2023-01-26T04:35:10.860Z,6.93
2023-01-26T04:37:38.454Z,7.50
2023-01-26T04:40:06.472Z,7.30
2023-01-26T04:42:33.095Z,7.40
2023-01-26T04:44:59.691Z,7.10
2023-01-26T04:47:28.973Z,7.30
2023-01-26T04:49:56.035Z,7.38
2023-01-26T04:52:22.912Z,7.50
2023-01-26T04:54:49.562Z,6.82
2023-01-26T04:57:16.286Z,6.97
2023-01-26T04:59:42.994Z,7.97
2023-01-26T05:02:09.652Z,7.57
2023-01-26T05:04:36.424Z,6.72
2023-01-26T05:07:03.259Z,7.32
2023-01-26T05:09:29.956Z,7.88
2023-01-26T05:12:16.575Z,7.05
2023-01-26T05:14:43.196Z,7.35
2023-01-26T05:17:09.816Z,7.25
2023-01-26T05:19:36.402Z,7.70
2023-01-26T05:22:03.028Z,7.80
2023-01-26T05:24:29.678Z,8.80
2023-01-26T05:27:16.292Z,7.15
2023-01-26T05:29:42.906Z,7.70
2023-01-26T05:32:09.582Z,7.15
2023-01-26T05:34:36.234Z,7.70
2023-01-26T05:37:02.938Z,6.90
2023-01-26T05:39:29.582Z,7.50
2023-01-26T05:41:56.922Z,7.18
2023-01-26T05:44:27.204Z,7.63
2023-01-26T05:46:53.837Z,7.53
2023-01-26T05:49:20.552Z,7.40
2023-01-26T05:51:47.202Z,7.55
2023-01-26T05:54:13.835Z,8.10
2023-01-26T05:56:40.535Z,7.45
2023-01-26T05:59:07.184Z,7.80
2023-01-26T06:01:33.818Z,7.63
2023-01-26T06:04:00.578Z,8.23
2023-01-26T06:06:27.299Z,8.05
2023-01-26T06:08:53.982Z,8.68
2023-01-26T06:11:20.692Z,8.30
2023-01-26T06:13:48.695Z,7.85
2023-01-26T06:16:15.471Z,7.72
2023-01-26T06:18:42.235Z,8.70
2023-01-26T06:21:08.883Z,8.25
2023-01-26T06:23:35.520Z,8.20
2023-01-26T06:26:02.796Z,10.13
2023-01-26T06:28:31.099Z,8.63
2023-01-26T06:31:05.555Z,9.18
2023-01-26T06:33:36.751Z,9.90
2023-01-26T06:36:05.084Z,8.55
2023-01-26T06:38:32.556Z,8.93
2023-01-26T06:41:03.027Z,8.77
2023-01-26T06:43:34.516Z,10.07
2023-01-26T06:46:02.693Z,10.50
2023-01-26T06:48:31.659Z,9.00
2023-01-26T06:51:24.360Z,9.05
2023-01-26T06:53:54.642Z,9.90
2023-01-26T06:56:22.683Z,9.50
2023-01-26T06:58:49.646Z,9.23
2023-01-26T07:01:18.981Z,8.60
2023-01-26T07:03:47.339Z,9.05
2023-01-26T07:06:14.063Z,9.38
2023-01-26T07:08:41.389Z,8.70
2023-01-26T07:11:09.238Z,8.43
2023-01-26T07:13:36.014Z,8.73
2023-01-26T07:16:11.404Z,9.07
2023-01-26T07:18:38.132Z,8.90
2023-01-26T07:21:15.970Z,9.00
2023-01-26T07:23:42.616Z,8.52
2023-01-26T07:26:09.400Z,8.55
2023-01-26T07:28:37.557Z,8.85
2023-01-26T07:31:06.925Z,8.57
2023-01-26T07:33:34.915Z,8.43
2023-01-26T07:36:02.195Z,8.50
2023-01-26T07:38:29.288Z,9.07
2023-01-26T07:40:57.028Z,9.18
2023-01-26T07:43:23.832Z,9.30
2023-01-26T07:45:52.809Z,9.07
2023-01-26T07:48:21.759Z,9.35
2023-01-26T07:50:49.444Z,9.18
2023-01-26T07:53:19.301Z,9.05
2023-01-26T07:55:47.041Z,9.63
2023-01-26T07:58:13.805Z,9.00
2023-01-26T08:00:40.911Z,8.95
2023-01-26T08:03:07.605Z,8.27
2023-01-26T08:05:35.560Z,9.18
2023-01-26T08:08:02.528Z,9.27
2023-01-26T08:10:31.580Z,9.40
2023-01-26T08:13:00.568Z,8.93
2023-01-26T08:15:28.359Z,9.48
2023-01-26T08:17:55.128Z,9.73
2023-01-26T08:20:21.901Z,9.70
2023-01-26T08:22:48.531Z,9.82
2023-01-26T08:25:15.263Z,9.68
2023-01-26T08:27:41.879Z,9.10
2023-01-26T08:30:09.409Z,9.80
2023-01-26T08:32:36.269Z,8.95
2023-01-26T08:35:03.139Z,9.40
2023-01-26T08:37:29.806Z,9.27
2023-01-26T08:39:56.430Z,10.00
2023-01-26T08:42:23.056Z,9.45
2023-01-26T08:44:49.708Z,9.27
2023-01-26T08:47:16.317Z,10.43
2023-01-26T08:49:42.971Z,9.77
2023-01-26T08:52:09.605Z,8.55
2023-01-26T08:54:36.311Z,9.98
2023-01-26T08:57:02.937Z,9.80
2023-01-26T08:59:29.591Z,10.07
2023-01-26T09:01:56.331Z,9.10
2023-01-26T09:04:23.055Z,9.00
2023-01-26T09:06:49.682Z,10.02
2023-01-26T09:09:16.348Z,8.90
2023-01-26T09:11:43.044Z,9.02
2023-01-26T09:14:09.673Z,8.40
2023-01-26T09:16:36.374Z,8.73
2023-01-26T09:19:03.166Z,8.65
2023-01-26T09:21:29.814Z,9.13
2023-01-26T09:23:57.288Z,8.60
2023-01-26T09:26:24.354Z,9.02
2023-01-26T09:28:52.643Z,8.50
2023-01-26T09:31:19.455Z,9.02
2023-01-26T09:33:46.301Z,7.70
2023-01-26T09:36:13.215Z,8.18
2023-01-26T09:38:40.239Z,9.27
2023-01-26T09:41:22.045Z,8.70
2023-01-26T09:44:05.569Z,8.63
2023-01-26T09:46:44.305Z,8.13
2023-01-26T09:49:19.256Z,8.60
2023-01-26T09:51:48.901Z,9.25
2023-01-26T09:54:22.467Z,9.18
2023-01-26T09:56:49.121Z,8.35
2023-01-26T09:59:35.134Z,8.13
2023-01-26T10:02:25.930Z,8.30
2023-01-26T10:04:58.412Z,8.95
2023-01-26T10:07:25.117Z,9.20
2023-01-26T10:09:53.288Z,8.65
2023-01-26T10:12:35.649Z,8.25
2023-01-26T10:15:23.235Z,8.15
2023-01-26T10:17:52.906Z,8.48
2023-01-26T10:20:35.249Z,8.50
2023-01-26T10:23:16.515Z,8.10
2023-01-26T10:25:46.794Z,8.63
2023-01-26T10:28:16.155Z,8.55
2023-01-26T10:30:45.649Z,8.75
2023-01-26T10:33:18.067Z,9.10
2023-01-26T10:35:45.363Z,9.88
2023-01-26T10:38:38.649Z,10.10
2023-01-26T10:41:26.742Z,10.02
2023-01-26T10:44:02.668Z,9.73
2023-01-26T10:46:35.298Z,9.23
2023-01-26T10:49:10.098Z,9.57
2023-01-26T10:51:39.681Z,10.02
2023-01-26T10:54:23.792Z,9.45
2023-01-26T10:57:00.370Z,10.13
2023-01-26T10:59:34.177Z,9.48
2023-01-26T11:02:28.020Z,9.43
2023-01-26T11:05:06.922Z,9.23
2023-01-26T11:07:36.301Z,9.40
2023-01-26T11:10:26.047Z,8.75
2023-01-26T11:13:16.599Z,10.00
2023-01-26T11:16:11.925Z,9.75
2023-01-26T11:18:52.438Z,9.32
2023-01-26T11:21:40.315Z,9.88
2023-01-26T11:24:34.639Z,8.85
2023-01-26T11:27:07.321Z,8.45
2023-01-26T11:29:46.210Z,9.43
2023-01-26T11:32:51.950Z,8.77
2023-01-26T11:35:24.627Z,8.15
2023-01-26T11:38:18.391Z,9.18
2023-01-26T11:41:14.402Z,9.63
2023-01-26T11:43:40.998Z,9.27
2023-01-26T11:46:17.382Z,9.77
2023-01-26T11:49:10.123Z,9.18
2023-01-26T11:51:58.118Z,10.15
2023-01-26T11:54:39.314Z,10.65
2023-01-26T11:57:30.859Z,9.55
2023-01-26T12:00:00.240Z,9.20
2023-01-26T12:02:34.094Z,8.93
2023-01-26T12:05:13.616Z,9.35
2023-01-26T12:08:05.711Z,9.43
2023-01-26T12:11:21.616Z,8.93
2023-01-26T12:13:58.720Z,9.15
2023-01-26T12:16:31.528Z,8.43
2023-01-26T12:19:11.317Z,8.82
2023-01-26T12:21:43.885Z,8.52
2023-01-26T12:24:46.769Z,8.73
2023-01-26T12:27:22.107Z,7.93
2023-01-26T12:30:05.996Z,8.90
2023-01-26T12:32:33.677Z,8.73
2023-01-26T12:35:00.433Z,7.78
2023-01-26T12:37:37.522Z,8.35
2023-01-26T12:40:09.992Z,8.30
2023-01-26T12:43:11.849Z,8.10
2023-01-26T12:45:42.003Z,8.65
2023-01-26T12:48:17.648Z,9.32
2023-01-26T12:50:57.009Z,9.45
2023-01-26T12:53:33.657Z,8.82
2023-01-26T12:56:10.042Z,8.70
2023-01-26T12:58:44.420Z,8.23
2023-01-26T13:01:17.694Z,8.80
2023-01-26T13:03:58.126Z,8.30
2023-01-26T13:06:26.923Z,8.77
2023-01-26T13:09:15.597Z,8.30
2023-01-26T13:11:54.012Z,8.00
2023-01-26T13:14:41.834Z,8.60
2023-01-26T13:17:17.588Z,7.68
2023-01-26T13:19:44.230Z,9.43
2023-01-26T13:22:25.924Z,8.40
2023-01-26T13:24:55.659Z,8.85
2023-01-26T13:27:31.013Z,8.35
2023-01-26T13:29:58.098Z,9.20
2023-01-26T13:32:24.670Z,8.65
2023-01-26T13:34:59.999Z,8.93
2023-01-26T13:37:34.477Z,8.02
2023-01-26T13:40:06.316Z,8.50
2023-01-26T13:42:43.951Z,9.27
2023-01-26T13:45:52.054Z,8.20
2023-01-26T13:48:41.394Z,8.05
2023-01-26T13:51:12.603Z,9.60
2023-01-26T13:53:41.594Z,8.82
2023-01-26T13:56:30.875Z,9.52
2023-01-26T13:59:27.042Z,9.35
2023-01-26T14:01:56.266Z,9.10
2023-01-26T14:04:31.164Z,8.50
2023-01-26T14:07:16.451Z,9.43
2023-01-26T14:09:49.629Z,9.15
2023-01-26T14:12:41.838Z,9.63
2023-01-26T14:15:23.595Z,8.25
2023-01-26T14:18:00.464Z,8.80
2023-01-26T14:20:36.572Z,9.38
2023-01-26T14:23:15.363Z,8.95
2023-01-26T14:25:46.996Z,8.88
2023-01-26T14:28:16.444Z,9.30
2023-01-26T14:30:44.788Z,8.85
2023-01-26T14:33:16.426Z,9.68
2023-01-26T14:36:00.181Z,8.73
2023-01-26T14:38:29.560Z,8.50
2023-01-26T14:40:58.720Z,8.60
2023-01-26T14:43:27.205Z,9.73
2023-01-26T14:45:59.931Z,8.98
2023-01-26T14:48:38.537Z,9.23
2023-01-26T14:51:06.963Z,8.73
2023-01-26T14:53:33.955Z,9.00
2023-01-26T14:56:00.715Z,8.95
2023-01-26T14:58:33.540Z,8.45
2023-01-26T15:01:01.548Z,9.75
2023-01-26T15:03:36.305Z,9.10
2023-01-26T15:06:13.696Z,8.65
2023-01-26T15:08:41.625Z,8.80
2023-01-26T15:11:28.321Z,8.45
2023-01-26T15:13:56.122Z,9.20
2023-01-26T15:16:25.237Z,9.15
2023-01-26T15:19:08.894Z,10.52
2023-01-26T15:21:40.298Z,10.18
2023-01-26T15:24:13.732Z,9.75
2023-01-26T15:26:40.994Z,9.30
2023-01-26T15:29:30.966Z,9.45
2023-01-26T15:31:58.683Z,9.60
2023-01-26T15:34:37.299Z,10.48
2023-01-26T15:37:31.691Z,10.05
2023-01-26T15:39:58.570Z,10.13
2023-01-26T15:42:28.850Z,9.95
2023-01-26T15:44:55.790Z,9.48
2023-01-26T15:47:22.548Z,10.98
2023-01-26T15:49:49.172Z,10.98
2023-01-26T15:52:17.628Z,10.30
2023-01-26T15:54:45.188Z,9.93
2023-01-26T15:57:12.537Z,9.48
2023-01-26T15:59:40.144Z,8.60
2023-01-26T16:02:17.873Z,10.13
2023-01-26T16:04:45.219Z,9.60
2023-01-26T16:07:17.817Z,10.35
2023-01-26T16:09:44.691Z,9.90
2023-01-26T16:12:30.341Z,9.50
2023-01-26T16:14:57.717Z,9.95
2023-01-26T16:17:24.358Z,9.70
2023-01-26T16:19:50.998Z,10.38
2023-01-26T16:22:17.721Z,10.13
2023-01-26T16:24:45.394Z,10.63
2023-01-26T16:27:12.051Z,11.00
2023-01-26T16:29:38.705Z,11.30
2023-01-26T16:32:27.033Z,10.35
2023-01-26T16:34:53.670Z,9.80
2023-01-26T16:37:20.297Z,10.32
2023-01-26T16:39:46.912Z,10.20
2023-01-26T16:42:18.489Z,10.82
2023-01-26T16:44:45.717Z,11.80
2023-01-26T16:47:12.364Z,11.07
2023-01-26T16:49:39.039Z,11.68
2023-01-26T16:52:07.670Z,10.45
2023-01-26T16:54:34.294Z,10.90
2023-01-26T16:57:00.979Z,10.70
2023-01-26T16:59:27.698Z,10.23
2023-01-26T17:01:54.590Z,11.20
2023-01-26T17:04:21.251Z,10.75
2023-01-26T17:06:48.099Z,10.73
2023-01-26T17:09:14.724Z,10.63
2023-01-26T17:11:41.413Z,10.13
2023-01-26T17:14:10.212Z,12.45
2023-01-26T17:16:37.047Z,10.38
2023-01-26T17:19:03.720Z,11.82
2023-01-26T17:21:30.375Z,11.57
2023-01-26T17:23:58.699Z,10.65
2023-01-26T17:26:25.413Z,12.20
2023-01-26T17:28:55.593Z,10.55
2023-01-26T17:31:24.070Z,11.65
2023-01-26T17:33:51.484Z,10.05
2023-01-26T17:36:19.141Z,11.95
2023-01-26T17:38:46.697Z,11.70
2023-01-26T17:41:13.358Z,11.85
2023-01-26T17:43:40.064Z,10.38
2023-01-26T17:46:08.281Z,10.68
2023-01-26T17:48:37.547Z,10.85
2023-01-26T17:51:23.039Z,12.45
2023-01-26T17:53:50.222Z,12.75
2023-01-26T17:56:20.211Z,11.07
2023-01-26T17:58:51.746Z,12.23
2023-01-26T18:01:19.671Z,11.23
2023-01-26T18:03:46.570Z,12.10
2023-01-26T18:06:13.344Z,11.60
2023-01-26T18:08:40.466Z,12.68
2023-01-26T18:11:10.057Z,11.50
2023-01-26T18:13:36.979Z,12.02
2023-01-26T18:16:06.330Z,11.13
2023-01-26T18:18:33.037Z,12.27
2023-01-26T18:21:17.643Z,11.18
2023-01-26T18:23:46.169Z,11.65
2023-01-26T18:26:13.311Z,11.93
2023-01-26T18:28:41.927Z,11.30
2023-01-26T18:31:15.618Z,11.73
2023-01-26T18:33:42.774Z,10.13
2023-01-26T18:36:11.949Z,12.20
2023-01-26T18:38:39.883Z,12.25
2023-01-26T18:41:14.102Z,11.43
2023-01-26T18:43:41.996Z,12.68
2023-01-26T18:46:09.150Z,10.90
2023-01-26T18:48:36.319Z,12.57
2023-01-26T18:51:03.507Z,12.35
2023-01-26T18:53:30.965Z,11.68
2023-01-26T18:56:08.698Z,11.10
2023-01-26T18:58:37.579Z,12.82
2023-01-26T19:01:09.297Z,12.73
2023-01-26T19:03:37.353Z,12.18
2023-01-26T19:06:05.394Z,11.73
2023-01-26T19:08:32.594Z,12.60
2023-01-26T19:11:06.798Z,13.05
2023-01-26T19:13:33.792Z,12.45
2023-01-26T19:16:00.722Z,11.40
2023-01-26T19:18:27.596Z,13.80
2023-01-26T19:20:58.068Z,12.85
2023-01-26T19:23:25.200Z,11.65
2023-01-26T19:25:51.866Z,13.15
2023-01-26T19:28:18.755Z,13.45
2023-01-26T19:30:45.600Z,13.15
2023-01-26T19:33:24.609Z,13.18
2023-01-26T19:35:52.394Z,14.60
2023-01-26T19:38:19.765Z,13.25
2023-01-26T19:40:49.001Z,12.60
2023-01-26T19:43:19.007Z,13.50
2023-01-26T19:45:50.556Z,14.68
2023-01-26T19:48:17.257Z,11.98
2023-01-26T19:50:43.994Z,12.30
2023-01-26T19:53:10.839Z,13.32
2023-01-26T19:55:37.458Z,14.07
2023-01-26T19:58:04.184Z,12.68
2023-01-26T20:00:30.937Z,11.90
2023-01-26T20:02:57.605Z,13.30
2023-01-26T20:05:24.263Z,13.95
2023-01-26T20:07:50.960Z,13.35
2023-01-26T20:10:17.623Z,13.07
2023-01-26T20:12:44.254Z,11.88
2023-01-26T20:15:11.428Z,12.10
2023-01-26T20:17:38.179Z,13.85
2023-01-26T20:20:05.413Z,12.68
2023-01-26T20:22:34.006Z,12.65
2023-01-26T20:25:00.861Z,13.75
2023-01-26T20:27:29.259Z,12.55
2023-01-26T20:29:56.238Z,11.60
2023-01-26T20:32:23.080Z,12.13
2023-01-26T20:34:50.115Z,12.13
2023-01-26T20:37:16.793Z,12.27
2023-01-26T20:39:46.652Z,11.35
2023-01-26T20:42:16.522Z,12.80
2023-01-26T20:44:43.601Z,11.63
2023-01-26T20:47:10.345Z,12.02
2023-01-26T20:49:37.383Z,12.60
2023-01-26T20:52:07.587Z,13.45
2023-01-26T20:54:35.593Z,12.27
2023-01-26T20:57:02.589Z,14.35
2023-01-26T20:59:29.848Z,12.23
2023-01-26T21:01:56.740Z,12.73
2023-01-26T21:04:23.633Z,13.25
2023-01-26T21:06:50.384Z,14.07
2023-01-26T21:09:17.195Z,13.70
2023-01-26T21:11:43.849Z,13.27
2023-01-26T21:14:13.158Z,12.43
2023-01-26T21:16:40.462Z,12.63
2023-01-26T21:19:07.359Z,13.25
2023-01-26T21:21:34.081Z,13.30
2023-01-26T21:24:00.863Z,13.68
2023-01-26T21:26:30.556Z,14.25
2023-01-26T21:28:59.720Z,12.18
2023-01-26T21:31:29.607Z,12.95
2023-01-26T21:33:57.171Z,13.85
2023-01-26T21:36:26.939Z,14.02
2023-01-26T21:38:56.375Z,11.70
2023-01-26T21:41:49.714Z,13.65
2023-01-26T21:44:28.752Z,14.75
2023-01-26T21:46:58.163Z,14.30
2023-01-26T21:49:25.592Z,14.05
2023-01-26T21:52:11.372Z,13.40
2023-01-26T21:54:38.083Z,13.65
2023-01-26T21:57:26.581Z,13.77
2023-01-26T21:59:53.283Z,12.55
2023-01-26T22:02:20.179Z,14.95
2023-01-26T22:04:47.000Z,15.73
2023-01-26T22:07:13.749Z,13.80
2023-01-26T22:09:41.073Z,13.40
2023-01-26T22:12:07.916Z,14.50
2023-01-26T22:14:34.592Z,13.77
2023-01-26T22:17:01.394Z,13.30
2023-01-26T22:19:28.216Z,13.50
2023-01-26T22:21:54.845Z,13.90
2023-01-26T22:24:21.574Z,13.50
2023-01-26T22:26:48.760Z,13.70
2023-01-26T22:29:15.386Z,14.90
2023-01-26T22:31:42.324Z,14.90
2023-01-26T22:34:11.626Z,14.18
2023-01-26T22:36:39.144Z,13.13
2023-01-26T22:39:05.869Z,14.30
2023-01-26T22:41:32.514Z,14.02
2023-01-26T22:44:00.271Z,12.90
2023-01-26T22:46:28.757Z,13.20
2023-01-26T22:48:57.342Z,12.38
2023-01-26T22:51:29.613Z,13.77
2023-01-26T22:53:57.424Z,12.82
2023-01-26T22:56:24.671Z,12.27
2023-01-26T22:58:58.482Z,14.07
2023-01-26T23:01:28.340Z,11.80
2023-01-26T23:03:55.787Z,15.25
2023-01-26T23:06:23.328Z,14.05
2023-01-26T23:08:50.539Z,13.65
2023-01-26T23:11:20.418Z,13.35
2023-01-26T23:13:48.944Z,13.10
2023-01-26T23:16:15.768Z,13.65
2023-01-26T23:18:43.195Z,12.13
2023-01-26T23:21:10.195Z,12.65
2023-01-26T23:23:39.085Z,12.90
2023-01-26T23:26:05.952Z,12.95
2023-01-26T23:28:36.275Z,13.75
2023-01-26T23:31:03.942Z,12.73
2023-01-26T23:33:32.007Z,13.25
2023-01-26T23:35:59.575Z,12.88
2023-01-26T23:38:27.811Z,12.40
2023-01-26T23:40:54.868Z,13.27
2023-01-26T23:43:22.053Z,12.98
2023-01-26T23:45:50.423Z,12.25
2023-01-26T23:48:17.469Z,10.75
2023-01-26T23:50:44.358Z,13.35
2023-01-26T23:53:11.825Z,12.23
2023-01-26T23:55:43.180Z,11.90
2023-01-26T23:58:11.268Z,13.85
